sensor_id;sensor_type;location;lat;lon;timestamp;P1;durP1;ratioP1;P2;durP2;ratioP2
15482;SDS011;7843;50.330;7.312;2023-03-01T00:01:08;6.63;;;4.22;;
15482;SDS011;7843;50.330;7.312;2023-03-01T00:03:37;7.15;;;4.18;;
15482;SDS011;7843;50.330;7.312;2023-03-01T00:06:04;7.90;;;4.10;;
15482;SDS011;7843;50.330;7.312;2023-03-01T00:08:31;7.90;;;5.35;;
15482;SDS011;7843;50.330;7.312;2023-03-01T00:11:03;7.50;;;4.97;;
15482;SDS011;7843;50.330;7.312;2023-03-01T00:13:39;6.50;;;4.27;;
15482;SDS011;7843;50.330;7.312;2023-03-01T00:16:07;14.77;;;5.70;;
15482;SDS011;7843;50.330;7.312;2023-03-01T00:18:35;7.18;;;4.70;;
15482;SDS011;7843;50.330;7.312;2023-03-01T00:21:02;9.90;;;6.15;;
15482;SDS011;7843;50.330;7.312;2023-03-01T00:23:29;11.97;;;6.87;;
15482;SDS011;7843;50.330;7.312;2023-03-01T00:25:56;35.23;;;14.70;;
15482;SDS011;7843;50.330;7.312;2023-03-01T00:28:22;16.00;;;7.38;;
15482;SDS011;7843;50.330;7.312;2023-03-01T00:30:49;8.88;;;5.55;;
15482;SDS011;7843;50.330;7.312;2023-03-01T00:33:16;8.15;;;4.63;;
15482;SDS011;7843;50.330;7.312;2023-03-01T00:35:43;8.77;;;5.35;;
15482;SDS011;7843;50.330;7.312;2023-03-01T00:38:10;11.47;;;4.97;;
15482;SDS011;7843;50.330;7.312;2023-03-01T00:40:36;9.40;;;5.07;;
15482;SDS011;7843;50.330;7.312;2023-03-01T00:43:03;8.03;;;5.37;;
15482;SDS011;7843;50.330;7.312;2023-03-01T00:45:30;11.27;;;5.25;;
15482;SDS011;7843;50.330;7.312;2023-03-01T00:47:57;7.97;;;4.35;;
15482;SDS011;7843;50.330;7.312;2023-03-01T00:50:24;7.00;;;4.70;;
15482;SDS011;7843;50.330;7.312;2023-03-01T00:52:54;7.75;;;4.53;;
15482;SDS011;7843;50.330;7.312;2023-03-01T00:55:21;8.83;;;4.83;;
15482;SDS011;7843;50.330;7.312;2023-03-01T00:57:49;8.02;;;5.10;;
15482;SDS011;7843;50.330;7.312;2023-03-01T01:00:15;11.05;;;5.40;;
15482;SDS011;7843;50.330;7.312;2023-03-01T01:02:43;11.57;;;4.78;;
15482;SDS011;7843;50.330;7.312;2023-03-01T01:05:10;7.28;;;4.35;;
15482;SDS011;7843;50.330;7.312;2023-03-01T01:07:37;10.68;;;4.75;;
15482;SDS011;7843;50.330;7.312;2023-03-01T01:10:04;8.10;;;5.10;;
15482;SDS011;7843;50.330;7.312;2023-03-01T01:12:32;8.15;;;4.13;;
15482;SDS011;7843;50.330;7.312;2023-03-01T01:14:58;9.85;;;5.40;;
15482;SDS011;7843;50.330;7.312;2023-03-01T01:17:25;6.47;;;4.80;;
15482;SDS011;7843;50.330;7.312;2023-03-01T01:19:52;7.97;;;4.30;;
15482;SDS011;7843;50.330;7.312;2023-03-01T01:22:18;6.43;;;4.45;;
15482;SDS011;7843;50.330;7.312;2023-03-01T01:24:45;8.82;;;4.80;;
15482;SDS011;7843;50.330;7.312;2023-03-01T01:27:12;8.00;;;4.68;;
15482;SDS011;7843;50.330;7.312;2023-03-01T01:29:38;8.48;;;4.72;;
15482;SDS011;7843;50.330;7.312;2023-03-01T01:32:05;7.05;;;5.07;;
15482;SDS011;7843;50.330;7.312;2023-03-01T01:34:31;9.23;;;4.80;;
15482;SDS011;7843;50.330;7.312;2023-03-01T01:36:58;8.40;;;5.10;;
15482;SDS011;7843;50.330;7.312;2023-03-01T01:39:28;8.82;;;4.78;;
15482;SDS011;7843;50.330;7.312;2023-03-01T01:41:55;12.38;;;5.43;;
15482;SDS011;7843;50.330;7.312;2023-03-01T01:44:23;8.60;;;5.17;;
15482;SDS011;7843;50.330;7.312;2023-03-01T01:46:53;10.20;;;5.63;;
15482;SDS011;7843;50.330;7.312;2023-03-01T01:49:39;9.55;;;5.25;;
15482;SDS011;7843;50.330;7.312;2023-03-01T01:52:16;7.63;;;5.15;;
15482;SDS011;7843;50.330;7.312;2023-03-01T01:55:08;9.68;;;5.28;;
15482;SDS011;7843;50.330;7.312;2023-03-01T01:57:51;6.70;;;4.60;;
15482;SDS011;7843;50.330;7.312;2023-03-01T02:00:25;7.40;;;4.43;;
15482;SDS011;7843;50.330;7.312;2023-03-01T02:03:03;8.32;;;5.35;;
15482;SDS011;7843;50.330;7.312;2023-03-01T02:05:47;13.02;;;4.78;;
15482;SDS011;7843;50.330;7.312;2023-03-01T02:08:23;8.20;;;5.32;;
15482;SDS011;7843;50.330;7.312;2023-03-01T02:10:52;12.25;;;5.88;;
15482;SDS011;7843;50.330;7.312;2023-03-01T02:13:22;9.55;;;5.53;;
15482;SDS011;7843;50.330;7.312;2023-03-01T02:15:49;9.10;;;5.10;;
15482;SDS011;7843;50.330;7.312;2023-03-01T02:18:16;10.70;;;5.07;;
15482;SDS011;7843;50.330;7.312;2023-03-01T02:23:40;9.27;;;5.80;;
15482;SDS011;7843;50.330;7.312;2023-03-01T02:26:09;7.90;;;5.60;;
15482;SDS011;7843;50.330;7.312;2023-03-01T02:29:01;8.40;;;5.22;;
15482;SDS011;7843;50.330;7.312;2023-03-01T02:31:28;7.28;;;4.82;;
15482;SDS011;7843;50.330;7.312;2023-03-01T02:36:49;7.63;;;5.25;;
15482;SDS011;7843;50.330;7.312;2023-03-01T02:39:27;8.07;;;4.65;;
15482;SDS011;7843;50.330;7.312;2023-03-01T02:42:15;9.23;;;4.95;;
15482;SDS011;7843;50.330;7.312;2023-03-01T02:44:52;7.72;;;4.75;;
15482;SDS011;7843;50.330;7.312;2023-03-01T02:47:19;7.70;;;5.10;;
15482;SDS011;7843;50.330;7.312;2023-03-01T02:49:46;10.80;;;5.60;;
15482;SDS011;7843;50.330;7.312;2023-03-01T02:54:51;8.15;;;5.20;;
15482;SDS011;7843;50.330;7.312;2023-03-01T02:57:22;12.68;;;5.70;;
15482;SDS011;7843;50.330;7.312;2023-03-01T02:59:50;11.35;;;5.90;;
15482;SDS011;7843;50.330;7.312;2023-03-01T03:07:35;8.30;;;4.78;;
15482;SDS011;7843;50.330;7.312;2023-03-01T03:10:04;8.95;;;5.53;;
15482;SDS011;7843;50.330;7.312;2023-03-01T03:12:33;12.68;;;5.85;;
15482;SDS011;7843;50.330;7.312;2023-03-01T03:14:59;9.73;;;5.30;;
15482;SDS011;7843;50.330;7.312;2023-03-01T03:17:26;18.42;;;8.95;;
15482;SDS011;7843;50.330;7.312;2023-03-01T03:19:53;10.95;;;5.95;;
15482;SDS011;7843;50.330;7.312;2023-03-01T03:22:19;10.50;;;5.47;;
15482;SDS011;7843;50.330;7.312;2023-03-01T03:24:46;10.00;;;5.40;;
15482;SDS011;7843;50.330;7.312;2023-03-01T03:27:13;7.43;;;5.25;;
15482;SDS011;7843;50.330;7.312;2023-03-01T03:29:39;10.13;;;5.65;;
15482;SDS011;7843;50.330;7.312;2023-03-01T03:32:06;8.82;;;5.57;;
15482;SDS011;7843;50.330;7.312;2023-03-01T03:34:33;10.10;;;5.57;;
15482;SDS011;7843;50.330;7.312;2023-03-01T03:36:59;10.87;;;5.50;;
15482;SDS011;7843;50.330;7.312;2023-03-01T03:39:28;10.90;;;6.00;;
15482;SDS011;7843;50.330;7.312;2023-03-01T03:41:55;9.93;;;5.53;;
15482;SDS011;7843;50.330;7.312;2023-03-01T03:44:21;10.30;;;5.40;;
15482;SDS011;7843;50.330;7.312;2023-03-01T03:46:48;11.63;;;5.90;;
15482;SDS011;7843;50.330;7.312;2023-03-01T03:49:15;11.27;;;5.43;;
15482;SDS011;7843;50.330;7.312;2023-03-01T03:51:41;9.02;;;5.60;;
15482;SDS011;7843;50.330;7.312;2023-03-01T03:54:08;11.40;;;6.53;;
15482;SDS011;7843;50.330;7.312;2023-03-01T03:56:35;10.98;;;6.07;;
15482;SDS011;7843;50.330;7.312;2023-03-01T03:59:01;9.07;;;5.55;;
15482;SDS011;7843;50.330;7.312;2023-03-01T04:01:28;8.68;;;5.22;;
15482;SDS011;7843;50.330;7.312;2023-03-01T04:03:55;8.48;;;5.43;;
15482;SDS011;7843;50.330;7.312;2023-03-01T04:06:22;12.20;;;5.50;;
15482;SDS011;7843;50.330;7.312;2023-03-01T04:08:49;7.60;;;5.40;;
15482;SDS011;7843;50.330;7.312;2023-03-01T04:11:17;13.00;;;5.72;;
15482;SDS011;7843;50.330;7.312;2023-03-01T04:13:55;11.20;;;5.95;;
15482;SDS011;7843;50.330;7.312;2023-03-01T04:16:24;8.73;;;5.15;;
15482;SDS011;7843;50.330;7.312;2023-03-01T04:18:51;11.43;;;6.07;;
15482;SDS011;7843;50.330;7.312;2023-03-01T04:21:22;12.57;;;6.60;;
15482;SDS011;7843;50.330;7.312;2023-03-01T04:23:49;10.23;;;6.13;;
15482;SDS011;7843;50.330;7.312;2023-03-01T04:26:19;16.23;;;6.93;;
15482;SDS011;7843;50.330;7.312;2023-03-01T04:28:46;14.23;;;6.75;;
15482;SDS011;7843;50.330;7.312;2023-03-01T04:31:16;12.10;;;5.95;;
15482;SDS011;7843;50.330;7.312;2023-03-01T04:33:45;12.30;;;6.55;;
15482;SDS011;7843;50.330;7.312;2023-03-01T04:36:17;12.63;;;6.35;;
15482;SDS011;7843;50.330;7.312;2023-03-01T04:38:45;10.60;;;5.38;;
15482;SDS011;7843;50.330;7.312;2023-03-01T04:41:14;10.35;;;5.70;;
15482;SDS011;7843;50.330;7.312;2023-03-01T04:43:43;10.25;;;5.72;;
15482;SDS011;7843;50.330;7.312;2023-03-01T04:46:11;14.70;;;6.97;;
15482;SDS011;7843;50.330;7.312;2023-03-01T04:48:41;10.77;;;6.20;;
15482;SDS011;7843;50.330;7.312;2023-03-01T04:51:09;10.20;;;5.67;;
15482;SDS011;7843;50.330;7.312;2023-03-01T04:53:40;10.80;;;6.83;;
15482;SDS011;7843;50.330;7.312;2023-03-01T04:56:08;9.90;;;5.68;;
15482;SDS011;7843;50.330;7.312;2023-03-01T04:58:35;10.23;;;5.78;;
15482;SDS011;7843;50.330;7.312;2023-03-01T05:01:07;9.32;;;5.90;;
15482;SDS011;7843;50.330;7.312;2023-03-01T05:03:44;11.13;;;5.95;;
15482;SDS011;7843;50.330;7.312;2023-03-01T05:06:18;10.23;;;5.68;;
15482;SDS011;7843;50.330;7.312;2023-03-01T05:08:46;9.43;;;6.20;;
15482;SDS011;7843;50.330;7.312;2023-03-01T05:11:12;8.90;;;6.03;;
15482;SDS011;7843;50.330;7.312;2023-03-01T05:13:39;9.43;;;5.72;;
15482;SDS011;7843;50.330;7.312;2023-03-01T05:16:06;7.70;;;5.20;;
15482;SDS011;7843;50.330;7.312;2023-03-01T05:18:37;11.13;;;5.72;;
15482;SDS011;7843;50.330;7.312;2023-03-01T05:21:07;10.15;;;5.68;;
15482;SDS011;7843;50.330;7.312;2023-03-01T05:23:36;9.20;;;5.43;;
15482;SDS011;7843;50.330;7.312;2023-03-01T05:26:03;9.40;;;5.70;;
15482;SDS011;7843;50.330;7.312;2023-03-01T05:28:34;9.88;;;5.78;;
15482;SDS011;7843;50.330;7.312;2023-03-01T05:31:01;11.63;;;5.68;;
15482;SDS011;7843;50.330;7.312;2023-03-01T05:33:28;10.57;;;6.22;;
15482;SDS011;7843;50.330;7.312;2023-03-01T05:35:59;11.60;;;5.38;;
15482;SDS011;7843;50.330;7.312;2023-03-01T05:38:26;8.93;;;5.93;;
15482;SDS011;7843;50.330;7.312;2023-03-01T05:40:52;11.82;;;6.35;;
15482;SDS011;7843;50.330;7.312;2023-03-01T05:43:19;12.20;;;6.57;;
15482;SDS011;7843;50.330;7.312;2023-03-01T05:45:46;9.48;;;6.20;;
15482;SDS011;7843;50.330;7.312;2023-03-01T05:48:13;15.48;;;6.35;;
15482;SDS011;7843;50.330;7.312;2023-03-01T05:50:41;9.87;;;6.00;;
15482;SDS011;7843;50.330;7.312;2023-03-01T05:55:38;11.27;;;6.72;;
15482;SDS011;7843;50.330;7.312;2023-03-01T05:58:10;11.00;;;6.87;;
15482;SDS011;7843;50.330;7.312;2023-03-01T06:00:40;11.32;;;6.47;;
15482;SDS011;7843;50.330;7.312;2023-03-01T06:03:09;11.35;;;5.65;;
15482;SDS011;7843;50.330;7.312;2023-03-01T06:05:37;8.23;;;5.68;;
15482;SDS011;7843;50.330;7.312;2023-03-01T06:08:04;9.15;;;6.00;;
15482;SDS011;7843;50.330;7.312;2023-03-01T06:10:31;11.23;;;6.20;;
15482;SDS011;7843;50.330;7.312;2023-03-01T06:12:57;12.18;;;6.25;;
15482;SDS011;7843;50.330;7.312;2023-03-01T06:15:24;12.30;;;6.10;;
15482;SDS011;7843;50.330;7.312;2023-03-01T06:17:53;10.93;;;6.20;;
15482;SDS011;7843;50.330;7.312;2023-03-01T06:20:24;13.02;;;6.80;;
15482;SDS011;7843;50.330;7.312;2023-03-01T06:22:52;10.63;;;7.40;;
15482;SDS011;7843;50.330;7.312;2023-03-01T06:25:20;13.50;;;7.07;;
15482;SDS011;7843;50.330;7.312;2023-03-01T06:27:48;15.38;;;6.60;;
15482;SDS011;7843;50.330;7.312;2023-03-01T06:30:15;12.83;;;6.53;;
15482;SDS011;7843;50.330;7.312;2023-03-01T06:32:43;10.37;;;7.07;;
15482;SDS011;7843;50.330;7.312;2023-03-01T06:35:11;14.43;;;7.60;;
15482;SDS011;7843;50.330;7.312;2023-03-01T06:37:39;20.38;;;10.43;;
15482;SDS011;7843;50.330;7.312;2023-03-01T06:40:07;13.57;;;7.78;;
15482;SDS011;7843;50.330;7.312;2023-03-01T06:42:35;9.77;;;5.87;;
15482;SDS011;7843;50.330;7.312;2023-03-01T06:45:02;16.00;;;7.22;;
15482;SDS011;7843;50.330;7.312;2023-03-01T06:47:30;13.40;;;7.47;;
15482;SDS011;7843;50.330;7.312;2023-03-01T06:49:57;15.95;;;8.77;;
15482;SDS011;7843;50.330;7.312;2023-03-01T06:52:23;19.13;;;8.57;;
15482;SDS011;7843;50.330;7.312;2023-03-01T06:54:50;15.38;;;8.60;;
15482;SDS011;7843;50.330;7.312;2023-03-01T06:57:17;17.88;;;9.52;;
15482;SDS011;7843;50.330;7.312;2023-03-01T06:59:44;17.13;;;8.43;;
15482;SDS011;7843;50.330;7.312;2023-03-01T07:02:12;18.55;;;8.68;;
15482;SDS011;7843;50.330;7.312;2023-03-01T07:04:39;16.48;;;8.68;;
15482;SDS011;7843;50.330;7.312;2023-03-01T07:07:06;14.00;;;8.52;;
15482;SDS011;7843;50.330;7.312;2023-03-01T07:09:32;14.83;;;8.73;;
15482;SDS011;7843;50.330;7.312;2023-03-01T07:11:59;17.60;;;8.45;;
15482;SDS011;7843;50.330;7.312;2023-03-01T07:14:26;16.70;;;9.00;;
15482;SDS011;7843;50.330;7.312;2023-03-01T07:16:53;17.83;;;7.40;;
15482;SDS011;7843;50.330;7.312;2023-03-01T07:19:20;13.00;;;7.50;;
15482;SDS011;7843;50.330;7.312;2023-03-01T07:21:47;14.15;;;7.45;;
15482;SDS011;7843;50.330;7.312;2023-03-01T07:24:14;22.92;;;7.80;;
15482;SDS011;7843;50.330;7.312;2023-03-01T07:26:41;13.20;;;6.93;;
15482;SDS011;7843;50.330;7.312;2023-03-01T07:29:09;13.77;;;6.97;;
15482;SDS011;7843;50.330;7.312;2023-03-01T07:31:36;18.20;;;10.07;;
15482;SDS011;7843;50.330;7.312;2023-03-01T07:34:03;14.25;;;7.63;;
15482;SDS011;7843;50.330;7.312;2023-03-01T07:36:29;11.30;;;6.47;;
15482;SDS011;7843;50.330;7.312;2023-03-01T07:38:56;15.30;;;6.97;;
15482;SDS011;7843;50.330;7.312;2023-03-01T07:41:24;10.45;;;6.53;;
15482;SDS011;7843;50.330;7.312;2023-03-01T07:43:50;11.93;;;6.70;;
15482;SDS011;7843;50.330;7.312;2023-03-01T07:46:17;13.70;;;6.97;;
15482;SDS011;7843;50.330;7.312;2023-03-01T07:48:45;14.30;;;7.18;;
15482;SDS011;7843;50.330;7.312;2023-03-01T07:51:12;15.80;;;7.23;;
15482;SDS011;7843;50.330;7.312;2023-03-01T07:53:39;20.95;;;9.63;;
15482;SDS011;7843;50.330;7.312;2023-03-01T07:56:07;15.98;;;8.57;;
15482;SDS011;7843;50.330;7.312;2023-03-01T07:58:36;27.38;;;12.77;;
15482;SDS011;7843;50.330;7.312;2023-03-01T08:01:04;19.45;;;9.63;;
15482;SDS011;7843;50.330;7.312;2023-03-01T08:03:33;15.15;;;8.57;;
15482;SDS011;7843;50.330;7.312;2023-03-01T08:06:00;13.38;;;7.25;;
15482;SDS011;7843;50.330;7.312;2023-03-01T08:08:28;12.97;;;7.17;;
15482;SDS011;7843;50.330;7.312;2023-03-01T08:10:56;16.98;;;8.55;;
15482;SDS011;7843;50.330;7.312;2023-03-01T08:13:24;15.20;;;7.25;;
15482;SDS011;7843;50.330;7.312;2023-03-01T08:15:51;12.68;;;6.95;;
15482;SDS011;7843;50.330;7.312;2023-03-01T08:18:18;11.60;;;7.45;;
15482;SDS011;7843;50.330;7.312;2023-03-01T08:20:46;15.38;;;7.10;;
15482;SDS011;7843;50.330;7.312;2023-03-01T08:23:13;12.70;;;6.93;;
15482;SDS011;7843;50.330;7.312;2023-03-01T08:25:40;19.88;;;8.90;;
15482;SDS011;7843;50.330;7.312;2023-03-01T08:28:06;12.68;;;8.10;;
15482;SDS011;7843;50.330;7.312;2023-03-01T08:30:33;12.70;;;7.28;;
15482;SDS011;7843;50.330;7.312;2023-03-01T08:33:00;15.13;;;7.20;;
15482;SDS011;7843;50.330;7.312;2023-03-01T08:35:27;17.13;;;7.43;;
15482;SDS011;7843;50.330;7.312;2023-03-01T08:37:53;12.75;;;7.05;;
15482;SDS011;7843;50.330;7.312;2023-03-01T08:40:20;13.77;;;6.75;;
15482;SDS011;7843;50.330;7.312;2023-03-01T08:42:47;12.60;;;7.55;;
15482;SDS011;7843;50.330;7.312;2023-03-01T08:45:13;11.70;;;6.70;;
15482;SDS011;7843;50.330;7.312;2023-03-01T08:47:44;13.40;;;7.50;;
15482;SDS011;7843;50.330;7.312;2023-03-01T08:50:11;15.52;;;8.10;;
15482;SDS011;7843;50.330;7.312;2023-03-01T08:52:38;15.93;;;7.35;;
15482;SDS011;7843;50.330;7.312;2023-03-01T08:55:04;16.80;;;7.57;;
15482;SDS011;7843;50.330;7.312;2023-03-01T08:57:32;10.43;;;6.32;;
15482;SDS011;7843;50.330;7.312;2023-03-01T08:59:58;14.82;;;7.50;;
15482;SDS011;7843;50.330;7.312;2023-03-01T09:02:25;11.75;;;7.03;;
15482;SDS011;7843;50.330;7.312;2023-03-01T09:04:51;11.85;;;6.80;;
15482;SDS011;7843;50.330;7.312;2023-03-01T09:07:18;11.30;;;7.03;;
15482;SDS011;7843;50.330;7.312;2023-03-01T09:09:45;14.32;;;8.18;;
15482;SDS011;7843;50.330;7.312;2023-03-01T09:12:11;12.40;;;7.32;;
15482;SDS011;7843;50.330;7.312;2023-03-01T09:14:38;12.25;;;7.03;;
15482;SDS011;7843;50.330;7.312;2023-03-01T09:17:07;13.68;;;7.25;;
15482;SDS011;7843;50.330;7.312;2023-03-01T09:19:33;14.20;;;6.50;;
15482;SDS011;7843;50.330;7.312;2023-03-01T09:22:00;13.30;;;6.85;;
15482;SDS011;7843;50.330;7.312;2023-03-01T09:24:28;15.40;;;7.72;;
15482;SDS011;7843;50.330;7.312;2023-03-01T09:26:55;13.40;;;7.45;;
15482;SDS011;7843;50.330;7.312;2023-03-01T09:29:22;15.63;;;7.50;;
15482;SDS011;7843;50.330;7.312;2023-03-01T09:31:49;12.33;;;7.47;;
15482;SDS011;7843;50.330;7.312;2023-03-01T09:34:16;12.80;;;8.30;;
15482;SDS011;7843;50.330;7.312;2023-03-01T09:36:49;15.23;;;8.13;;
15482;SDS011;7843;50.330;7.312;2023-03-01T09:39:17;14.70;;;8.05;;
15482;SDS011;7843;50.330;7.312;2023-03-01T09:41:46;11.38;;;7.25;;
15482;SDS011;7843;50.330;7.312;2023-03-01T09:47:12;14.43;;;7.35;;
15482;SDS011;7843;50.330;7.312;2023-03-01T09:50:21;15.48;;;7.60;;
15482;SDS011;7843;50.330;7.312;2023-03-01T09:52:46;13.73;;;7.50;;
15482;SDS011;7843;50.330;7.312;2023-03-01T09:55:35;14.52;;;6.95;;
15482;SDS011;7843;50.330;7.312;2023-03-01T09:58:25;11.70;;;7.43;;
15482;SDS011;7843;50.330;7.312;2023-03-01T10:03:52;13.38;;;7.75;;
15482;SDS011;7843;50.330;7.312;2023-03-01T10:06:39;16.55;;;8.70;;
15482;SDS011;7843;50.330;7.312;2023-03-01T10:09:16;13.70;;;8.70;;
15482;SDS011;7843;50.330;7.312;2023-03-01T10:11:48;13.60;;;7.10;;
15482;SDS011;7843;50.330;7.312;2023-03-01T10:14:28;15.30;;;8.02;;
15482;SDS011;7843;50.330;7.312;2023-03-01T10:20:10;13.40;;;8.20;;
15482;SDS011;7843;50.330;7.312;2023-03-01T10:22:42;13.05;;;8.10;;
15482;SDS011;7843;50.330;7.312;2023-03-01T10:25:13;18.77;;;7.75;;
15482;SDS011;7843;50.330;7.312;2023-03-01T10:27:46;14.38;;;8.15;;
15482;SDS011;7843;50.330;7.312;2023-03-01T10:33:13;12.10;;;7.95;;
15482;SDS011;7843;50.330;7.312;2023-03-01T10:35:43;15.38;;;9.23;;
15482;SDS011;7843;50.330;7.312;2023-03-01T10:38:13;13.68;;;7.95;;
15482;SDS011;7843;50.330;7.312;2023-03-01T10:40:54;18.27;;;8.52;;
15482;SDS011;7843;50.330;7.312;2023-03-01T10:43:27;14.10;;;9.07;;
15482;SDS011;7843;50.330;7.312;2023-03-01T10:51:50;16.55;;;9.25;;
15482;SDS011;7843;50.330;7.312;2023-03-01T10:54:29;15.18;;;8.75;;
15482;SDS011;7843;50.330;7.312;2023-03-01T10:56:58;12.48;;;8.20;;
15482;SDS011;7843;50.330;7.312;2023-03-01T10:59:32;15.60;;;7.82;;
15482;SDS011;7843;50.330;7.312;2023-03-01T11:07:48;15.13;;;8.55;;
15482;SDS011;7843;50.330;7.312;2023-03-01T11:10:25;15.55;;;7.63;;
15482;SDS011;7843;50.330;7.312;2023-03-01T11:13:14;11.90;;;7.68;;
15482;SDS011;7843;50.330;7.312;2023-03-01T11:15:43;12.63;;;7.93;;
15482;SDS011;7843;50.330;7.312;2023-03-01T11:18:25;14.68;;;8.07;;
15482;SDS011;7843;50.330;7.312;2023-03-01T11:21:11;15.18;;;7.57;;
15482;SDS011;7843;50.330;7.312;2023-03-01T11:23:37;14.35;;;8.02;;
15482;SDS011;7843;50.330;7.312;2023-03-01T11:26:07;13.97;;;8.03;;
15482;SDS011;7843;50.330;7.312;2023-03-01T11:28:37;13.23;;;8.20;;
15482;SDS011;7843;50.330;7.312;2023-03-01T11:31:08;14.75;;;8.73;;
15482;SDS011;7843;50.330;7.312;2023-03-01T11:36:27;13.23;;;7.43;;
15482;SDS011;7843;50.330;7.312;2023-03-01T11:39:15;15.45;;;7.90;;
15482;SDS011;7843;50.330;7.312;2023-03-01T11:42:00;14.85;;;8.35;;
15482;SDS011;7843;50.330;7.312;2023-03-01T11:44:43;13.48;;;8.50;;
15482;SDS011;7843;50.330;7.312;2023-03-01T11:47:23;15.40;;;8.47;;
15482;SDS011;7843;50.330;7.312;2023-03-01T11:53:14;14.40;;;8.00;;
15482;SDS011;7843;50.330;7.312;2023-03-01T12:01:44;14.40;;;8.75;;
15482;SDS011;7843;50.330;7.312;2023-03-01T12:10:23;17.42;;;9.05;;
15482;SDS011;7843;50.330;7.312;2023-03-01T12:18:21;14.60;;;8.32;;
15482;SDS011;7843;50.330;7.312;2023-03-01T12:21:18;13.02;;;7.65;;
15482;SDS011;7843;50.330;7.312;2023-03-01T12:26:32;13.63;;;7.55;;
15482;SDS011;7843;50.330;7.312;2023-03-01T12:29:08;12.57;;;7.90;;
15482;SDS011;7843;50.330;7.312;2023-03-01T12:35:02;13.05;;;7.63;;
15482;SDS011;7843;50.330;7.312;2023-03-01T12:41:01;15.15;;;7.68;;
15482;SDS011;7843;50.330;7.312;2023-03-01T12:46:58;12.27;;;7.10;;
15482;SDS011;7843;50.330;7.312;2023-03-01T12:49:47;11.80;;;7.37;;
15482;SDS011;7843;50.330;7.312;2023-03-01T12:52:27;14.18;;;7.43;;
15482;SDS011;7843;50.330;7.312;2023-03-01T12:55:06;13.88;;;8.05;;
15482;SDS011;7843;50.330;7.312;2023-03-01T12:57:46;11.95;;;6.90;;
15482;SDS011;7843;50.330;7.312;2023-03-01T13:00:37;10.87;;;7.07;;
15482;SDS011;7843;50.330;7.312;2023-03-01T13:03:19;9.63;;;6.30;;
15482;SDS011;7843;50.330;7.312;2023-03-01T13:09:12;12.00;;;7.53;;
15482;SDS011;7843;50.330;7.312;2023-03-01T13:11:44;9.27;;;6.32;;
15482;SDS011;7843;50.330;7.312;2023-03-01T13:16:46;8.23;;;5.67;;
15482;SDS011;7843;50.330;7.312;2023-03-01T13:19:16;7.80;;;4.95;;
15482;SDS011;7843;50.330;7.312;2023-03-01T13:21:44;7.35;;;5.20;;
15482;SDS011;7843;50.330;7.312;2023-03-01T13:24:23;8.63;;;4.37;;
15482;SDS011;7843;50.330;7.312;2023-03-01T13:29:45;8.45;;;5.15;;
15482;SDS011;7843;50.330;7.312;2023-03-01T13:35:00;8.98;;;5.35;;
15482;SDS011;7843;50.330;7.312;2023-03-01T13:37:34;11.03;;;6.10;;
15482;SDS011;7843;50.330;7.312;2023-03-01T13:40:05;6.63;;;4.50;;
15482;SDS011;7843;50.330;7.312;2023-03-01T13:42:49;8.23;;;5.43;;
15482;SDS011;7843;50.330;7.312;2023-03-01T13:45:37;8.73;;;5.43;;
15482;SDS011;7843;50.330;7.312;2023-03-01T13:48:22;8.45;;;5.07;;
15482;SDS011;7843;50.330;7.312;2023-03-01T13:50:57;6.90;;;4.85;;
15482;SDS011;7843;50.330;7.312;2023-03-01T13:53:29;7.07;;;5.15;;
15482;SDS011;7843;50.330;7.312;2023-03-01T13:56:01;7.80;;;5.13;;
15482;SDS011;7843;50.330;7.312;2023-03-01T13:58:43;7.63;;;4.85;;
15482;SDS011;7843;50.330;7.312;2023-03-01T14:01:25;8.07;;;5.47;;
15482;SDS011;7843;50.330;7.312;2023-03-01T14:03:55;7.57;;;4.88;;
15482;SDS011;7843;50.330;7.312;2023-03-01T14:06:26;8.20;;;4.80;;
15482;SDS011;7843;50.330;7.312;2023-03-01T14:09:05;5.38;;;4.53;;
15482;SDS011;7843;50.330;7.312;2023-03-01T14:14:21;7.22;;;4.72;;
15482;SDS011;7843;50.330;7.312;2023-03-01T14:17:02;6.77;;;4.67;;
15482;SDS011;7843;50.330;7.312;2023-03-01T14:19:32;5.93;;;4.43;;
15482;SDS011;7843;50.330;7.312;2023-03-01T14:24:51;6.00;;;4.43;;
15482;SDS011;7843;50.330;7.312;2023-03-01T14:27:18;5.72;;;4.50;;
15482;SDS011;7843;50.330;7.312;2023-03-01T14:30:02;6.97;;;4.55;;
15482;SDS011;7843;50.330;7.312;2023-03-01T14:32:36;6.80;;;3.95;;
15482;SDS011;7843;50.330;7.312;2023-03-01T14:35:03;6.47;;;4.03;;
15482;SDS011;7843;50.330;7.312;2023-03-01T14:37:44;8.85;;;4.43;;
15482;SDS011;7843;50.330;7.312;2023-03-01T14:40:19;6.38;;;4.43;;
15482;SDS011;7843;50.330;7.312;2023-03-01T14:42:48;6.80;;;4.40;;
15482;SDS011;7843;50.330;7.312;2023-03-01T14:45:15;6.47;;;4.10;;
15482;SDS011;7843;50.330;7.312;2023-03-01T14:47:43;7.00;;;3.47;;
15482;SDS011;7843;50.330;7.312;2023-03-01T14:52:58;5.55;;;3.60;;
15482;SDS011;7843;50.330;7.312;2023-03-01T14:55:37;5.07;;;3.10;;
15482;SDS011;7843;50.330;7.312;2023-03-01T14:58:11;8.10;;;3.42;;
15482;SDS011;7843;50.330;7.312;2023-03-01T15:00:45;4.50;;;3.13;;
15482;SDS011;7843;50.330;7.312;2023-03-01T15:03:25;5.30;;;3.72;;
15482;SDS011;7843;50.330;7.312;2023-03-01T15:06:01;5.30;;;3.37;;
15482;SDS011;7843;50.330;7.312;2023-03-01T15:08:28;5.82;;;3.35;;
15482;SDS011;7843;50.330;7.312;2023-03-01T15:11:03;5.30;;;3.35;;
15482;SDS011;7843;50.330;7.312;2023-03-01T15:13:42;5.07;;;3.38;;
15482;SDS011;7843;50.330;7.312;2023-03-01T15:16:13;6.18;;;3.15;;
15482;SDS011;7843;50.330;7.312;2023-03-01T15:18:46;5.03;;;3.20;;
15482;SDS011;7843;50.330;7.312;2023-03-01T15:23:55;8.70;;;3.50;;
15482;SDS011;7843;50.330;7.312;2023-03-01T15:26:35;5.03;;;3.08;;
15482;SDS011;7843;50.330;7.312;2023-03-01T15:29:10;5.53;;;2.65;;
15482;SDS011;7843;50.330;7.312;2023-03-01T15:31:52;4.93;;;2.80;;
15482;SDS011;7843;50.330;7.312;2023-03-01T15:34:28;3.70;;;2.30;;
15482;SDS011;7843;50.330;7.312;2023-03-01T15:37:00;3.67;;;2.53;;
15482;SDS011;7843;50.330;7.312;2023-03-01T15:39:41;4.90;;;2.55;;
15482;SDS011;7843;50.330;7.312;2023-03-01T15:45:06;5.67;;;2.37;;
15482;SDS011;7843;50.330;7.312;2023-03-01T15:47:35;4.60;;;2.45;;
15482;SDS011;7843;50.330;7.312;2023-03-01T15:50:05;4.70;;;2.65;;
15482;SDS011;7843;50.330;7.312;2023-03-01T15:52:40;3.17;;;2.30;;
15482;SDS011;7843;50.330;7.312;2023-03-01T15:55:16;5.47;;;2.63;;
15482;SDS011;7843;50.330;7.312;2023-03-01T15:57:48;4.13;;;2.60;;
15482;SDS011;7843;50.330;7.312;2023-03-01T16:00:16;4.47;;;2.43;;
15482;SDS011;7843;50.330;7.312;2023-03-01T16:02:43;5.53;;;3.13;;
15482;SDS011;7843;50.330;7.312;2023-03-01T16:05:15;4.38;;;2.63;;
15482;SDS011;7843;50.330;7.312;2023-03-01T16:07:45;4.45;;;2.80;;
15482;SDS011;7843;50.330;7.312;2023-03-01T16:10:12;6.27;;;2.80;;
15482;SDS011;7843;50.330;7.312;2023-03-01T16:12:39;3.97;;;2.60;;
15482;SDS011;7843;50.330;7.312;2023-03-01T16:15:48;4.20;;;2.67;;
15482;SDS011;7843;50.330;7.312;2023-03-01T16:17:58;4.93;;;2.80;;
15482;SDS011;7843;50.330;7.312;2023-03-01T16:20:25;4.75;;;2.88;;
15482;SDS011;7843;50.330;7.312;2023-03-01T16:22:59;7.00;;;3.70;;
15482;SDS011;7843;50.330;7.312;2023-03-01T16:25:27;4.40;;;2.65;;
15482;SDS011;7843;50.330;7.312;2023-03-01T16:27:54;5.70;;;3.35;;
15482;SDS011;7843;50.330;7.312;2023-03-01T16:30:22;7.88;;;3.70;;
15482;SDS011;7843;50.330;7.312;2023-03-01T16:32:49;8.60;;;4.47;;
15482;SDS011;7843;50.330;7.312;2023-03-01T16:35:17;9.50;;;5.15;;
15482;SDS011;7843;50.330;7.312;2023-03-01T16:37:46;6.13;;;3.53;;
15482;SDS011;7843;50.330;7.312;2023-03-01T16:40:18;7.10;;;3.45;;
15482;SDS011;7843;50.330;7.312;2023-03-01T16:42:47;7.18;;;4.07;;
15482;SDS011;7843;50.330;7.312;2023-03-01T16:45:16;8.70;;;4.82;;
15482;SDS011;7843;50.330;7.312;2023-03-01T16:47:49;6.15;;;3.58;;
15482;SDS011;7843;50.330;7.312;2023-03-01T16:50:16;6.30;;;3.45;;
15482;SDS011;7843;50.330;7.312;2023-03-01T16:52:43;8.30;;;4.80;;
15482;SDS011;7843;50.330;7.312;2023-03-01T16:55:09;12.65;;;6.13;;